• Join FlightAware (Why Join?)
  • Login
  • US Flag 
02:55AM EST


 

Airport Tracker/Info


-or-


 

Live Flight TrackerFlight Track Log ✈ N510SR ✈ 17-Apr-2014 ✈ KTEB - MYAM / MHH

Flight Track Log - Related Links

Times and Time Zones

All times are in EDT time to prevent confusion due to time zone crossing. See the N510SR flight status page for this flight to view local times or setup timezone preferences in your user account.

Time Position Orientation Groundspeed Altitude Reporting Facility
EDT Latitude Longitude Course Direction KTS MPH feet Rate Location/Type
12:41PM 40.9167 -74.0333 270° West 218 251 2,900  Level New York TRACON
12:42PM 40.9167 -74.1167 270° West 243 280 6,700 3,480 Climbing New York TRACON
12:44PM 40.9000 -74.3181 264° West 273 314 13,900 2,280 Climbing New York Center
12:45PM 40.8508 -74.4281 239° Southwest 305 351 14,000 480 Climbing New York Center
12:46PM 40.5833 -74.9471 270° West  Level FlightAware Approximate
12:46PM 40.8042 -74.5214 237° Southwest 340 391 14,900  Level New York Center
12:47PM 40.7483 -74.6389 238° Southwest 347 399 16,000 900 Climbing New York Center
12:48PM 40.7033 -74.7375 239° Southwest 352 405 16,700 1,020 Climbing New York Center
12:49PM 40.6453 -74.8544 237° Southwest 358 412 18,100 1,080 Climbing New York Center
12:50PM 40.5958 -74.9528 237° Southwest 358 412 18,900 1,620 Climbing New York Center
12:51PM 40.5397 -75.0639 236° Southwest 358 412 21,400 2,280 Climbing New York Center
12:52PM 40.4756 -75.1664 231° Southwest 370 426 23,500 2,100 Climbing New York Center
12:53PM 40.4025 -75.2789 230° Southwest 389 448 25,600 1,980 Climbing New York Center
12:54PM 40.3278 -75.3831 227° Southwest 395 455 27,500 1,740 Climbing New York Center
12:55PM 40.2425 -75.4833 222° Southwest 406 467 29,100 1,740 Climbing New York Center
12:56PM 40.1528 -75.5858 221° Southwest 417 480 31,000 2,100 Climbing New York Center
12:57PM 40.0675 -75.6858 222° Southwest 422 486 33,300 2,160 Climbing New York Center
12:58PM 39.9839 -75.7883 223° Southwest 422 486 35,400 1,980 Climbing New York Center
12:59PM 39.9028 -75.8825 222° Southwest 408 470 37,300 1,800 Climbing New York Center
01:00PM 39.8103 -75.9919 222° Southwest 408 470 39,000 900 Climbing New York Center
01:02PM 39.6603 -76.1656 222° Southwest 405 466 40,000 300 Climbing Washington Center
01:03PM 39.5742 -76.2619 221° Southwest 410 472 40,000  Level Washington Center
01:04PM 39.4861 -76.3633 222° Southwest 410 472 40,000  Level Washington Center
01:05PM 39.4083 -76.4781 229° Southwest 410 472 40,000 120 Level Washington Center
01:06PM 39.3322 -76.5925 229° Southwest 421 484 40,300 600 Climbing Washington Center
01:07PM 39.2564 -76.7094 230° Southwest 427 491 41,200 1,380 Climbing Washington Center
01:08PM 39.1864 -76.8208 231° Southwest 422 486 43,100 1,140 Climbing Washington Center
01:09PM 39.1186 -76.9292 231° Southwest 403 464 43,600 480 Climbing Washington Center
01:10PM 39.0464 -77.0375 229° Southwest 403 464 44,100 660 Climbing Washington Center
01:11PM 38.9619 -77.1319 221° Southwest 403 464 45,000 420 Climbing Washington Center
01:12PM 38.8772 -77.2208 219° Southwest 397 457 45,000  Level Washington Center
01:13PM 38.7906 -77.3147 220° Southwest 402 463 45,000  Level Washington Center
01:14PM 38.7081 -77.4033 220° Southwest 407 468 45,000  Level Washington Center
01:15PM 38.6231 -77.4969 221° Southwest 412 474 45,000  Level Washington Center
01:16PM 38.5361 -77.5903 220° Southwest 412 474 45,000  Level Washington Center
01:17PM 38.4617 -77.6731 221° Southwest 412 474 45,000  Level Washington Center
01:18PM 38.3767 -77.7661 221° Southwest 412 474 45,000  Level Washington Center
01:19PM 38.2917 -77.8561 220° Southwest 412 474 45,000  Level Washington Center
01:20PM 38.2064 -77.9489 221° Southwest 412 474 45,100  Climbing Washington Center
01:21PM 38.1211 -78.0411 220° Southwest 412 474 45,100  Level Washington Center
01:22PM 38.0317 -78.1358 220° Southwest 412 474 45,100  Level Washington Center
01:23PM 37.9464 -78.2225 219° Southwest 412 474 45,100  Level Washington Center
01:24PM 37.8419 -78.3214 217° Southwest 419 482 45,100  Level Washington Center
01:25PM 37.7481 -78.4100 217° Southwest 424 488 45,100  Level Washington Center
01:26PM 37.6542 -78.4981 217° Southwest 430 495 45,100  Level Washington Center
01:27PM 37.5581 -78.5889 217° Southwest 430 495 45,100  Level Washington Center
01:28PM 37.4642 -78.6767 217° Southwest 430 495 45,100  Level Washington Center
01:29PM 37.3764 -78.7567 216° Southwest 430 495 45,100  Level Washington Center
01:30PM 37.2822 -78.8469 217° Southwest 430 495 45,100  Level Washington Center
01:31PM 37.1861 -78.9342 216° Southwest 430 495 45,100  Level Washington Center
01:32PM 37.0897 -79.0236 217° Southwest 430 495 45,100  Level Washington Center
01:33PM 36.9931 -79.1103 216° Southwest 430 495 45,100  Level Washington Center
01:34PM 36.8858 -79.2092 216° Southwest 430 495 45,100  Level Washington Center
01:35PM 36.7914 -79.2956 216° Southwest 430 495 45,100  Level Washington Center
01:36PM 36.6947 -79.3842 216° Southwest 430 495 45,100  Level Washington Center
01:39PM 36.4172 -79.6347 216° Southwest 430 495 45,100  Level Atlanta Center
01:40PM 36.3203 -79.7225 216° Southwest 430 495 45,100  Level Atlanta Center
01:41PM 36.2275 -79.8100 217° Southwest 430 495 45,100  Level Atlanta Center
01:42PM 36.1303 -79.8947 215° Southwest 430 495 45,100  Level Atlanta Center
01:43PM 36.0431 -79.9683 214° Southwest 430 495 45,100  Level Atlanta Center
01:44PM 35.9322 -80.0278 203° Southwest 430 495 45,100  Level Atlanta Center
01:46PM 35.6761 -80.0028 175° South 418 481 45,100  Level Washington Center
01:47PM 35.5978 -79.8656 125° Southeast 420 483 45,100  Level Washington Center
01:48PM 35.5128 -79.7283 127° Southeast 465 535 45,100  Level Washington Center
01:49PM 35.4317 -79.5967 127° Southeast 472 543 45,100  Level Washington Center
01:50PM 35.3397 -79.4800 134° Southeast 477 549 45,100 -60 Level Washington Center
01:51PM 35.2472 -79.3664 135° Southeast 472 543 45,000  Descending Washington Center
01:52PM 35.1531 -79.2475 134° Southeast 478 550 45,100  Climbing Washington Center
01:53PM 35.0647 -79.1269 132° Southeast 478 550 45,100 -60 Level Washington Center
01:54PM 35.0028 -78.9567 114° Southeast 486 559 45,000  Descending Washington Center
01:55PM 34.9444 -78.8075 115° Southeast 492 566 45,100  Climbing Washington Center
01:56PM 34.8858 -78.6558 115° Southeast 492 566 45,100 -60 Level Washington Center
01:57PM 34.8269 -78.5017 115° Southeast 497 572 45,000 -60 Descending Washington Center
01:58PM 34.7722 -78.3531 114° Southeast 489 563 45,000  Level Washington Center
01:59PM 34.7150 -78.1994 114° Southeast 489 563 45,000  Level Washington Center
02:00PM 34.6558 -78.0436 115° Southeast 489 563 45,000  Level Washington Center
02:01PM 34.5536 -77.9447 141° Southeast 462 532 45,000  Level Washington Center
02:02PM 34.4308 -77.9186 170° South 428 493 45,000  Level Washington Center
02:03PM 34.3078 -77.9150 179° South 421 484 45,000 -600 Level Washington Center
02:04PM 34.1786 -77.9064 177° South 441 507 43,800 -660 Descending Washington Center
02:06PM 33.9481 -77.8958 178° South 452 520 43,100 -300 Descending Jacksonville Center
02:07PM 33.8228 -77.8906 178° South 457 526 43,100  Level Jacksonville Center
02:08PM 33.6975 -77.8853 178° South 462 532 43,100 -60 Level Jacksonville Center
02:09PM 33.5575 -77.8806 178° South 462 532 43,000 -60 Descending Jacksonville Center
02:10PM 33.4319 -77.8753 178° South 457 526 43,000  Level Jacksonville Center
02:11PM 33.3044 -77.8700 178° South 457 526 43,000  Level Jacksonville Center
02:12PM 33.1811 -77.8647 178° South 457 526 43,000  Level Jacksonville Center
02:13PM 33.0558 -77.8592 178° South 457 526 43,000  Level Jacksonville Center
02:14PM 32.9303 -77.8514 177° South 457 526 43,000  Level Jacksonville Center
02:15PM 32.8028 -77.8486 179° South 457 526 43,000  Level Jacksonville Center
02:16PM 32.6775 -77.8433 178° South 457 526 43,000  Level Jacksonville Center
02:17PM 32.5519 -77.8356 177° South 457 526 43,000  Level Jacksonville Center
02:18PM 32.4264 -77.8303 178° South 457 526 43,000  Level Jacksonville Center
02:19PM 32.3028 -77.8200 176° South 457 526 43,000  Level Jacksonville Center
02:20PM 32.1778 -77.8244 182° South 457 526 43,000  Level Jacksonville Center
02:21PM 32.0522 -77.8167 177° South 457 526 43,000  Level Jacksonville Center
02:22PM 31.9267 -77.8064 176° South 457 526 43,000  Level Jacksonville Center
02:23PM 31.8031 -77.7961 176° South 462 532 43,000  Level Jacksonville Center
02:24PM 31.6781 -77.7981 181° South 456 525 43,000  Level Jacksonville Center
02:25PM 31.5525 -77.7928 178° South 465 535 43,000  Level Jacksonville Center
02:26PM 31.4269 -77.7850 177° South 459 528 43,000  Level Jacksonville Center
02:27PM 31.3019 -77.7919 183° South 455 524 43,000  Level Jacksonville Center
02:28PM 31.1767 -77.7914 180° South 455 524 43,000  Level Jacksonville Center
02:29PM 31.0517 -77.7933 181° South 455 524 43,000  Level Jacksonville Center
02:30PM 30.9381 -77.7728 171° South 481 554 43,000  Level Jacksonville Center
02:31PM 30.8144 -77.7650 177° South 461 531 43,000  Level Jacksonville Center
02:32PM 30.6911 -77.7550 176° South 447 514 43,000  Level Jacksonville Center
02:33PM 30.5678 -77.7494 178° South 457 526 43,000  Level Jacksonville Center
02:35PM 30.3631 -77.7500 180° South 455 524 43,000  Level Miami Center
02:36PM 30.2317 -77.7442 178° South 461 531 43,000  Level Miami Center
02:37PM 30.1067 -77.7358 177° South 454 522 43,000  Level Miami Center
02:38PM 29.9919 -77.7350 180° South 446 513 43,000  Level Miami Center
02:39PM 29.8692 -77.7292 178° South 447 514 43,000 -780 Level Miami Center
02:40PM 29.7358 -77.7161 175° South 445 512 41,500 -1,800 Descending Miami Center
02:41PM 29.6106 -77.7128 179° South 451 519 39,500 -1,800 Descending Miami Center
02:42PM 29.4750 -77.7047 177° South 468 539 38,000 -780 Descending Miami Center
02:43PM 29.3500 -77.6967 177° South 468 539 38,000  Level Miami Center
02:44PM 29.2186 -77.6908 178° South 460 529 38,000  Level Miami Center
02:45PM 29.0933 -77.6850 178° South 460 529 38,000  Level Miami Center
02:46PM 28.9683 -77.6794 178° South 469 540 38,000  Level Miami Center
02:47PM 28.8389 -77.6714 177° South 463 533 38,000 -180 Level Miami Center
02:48PM 28.7094 -77.6658 178° South 463 533 37,700 -1,440 Descending Miami Center
02:49PM 28.5781 -77.6578 177° South 463 533 35,200 -2,700 Descending Miami Center
02:50PM 28.4383 -77.6519 178° South 480 552 32,400 -2,820 Descending Miami Center
02:51PM 28.3108 -77.6439 177° South 480 552 29,600 -2,760 Descending Miami Center
02:52PM 28.1753 -77.6383 178° South 474 545 26,900 -2,640 Descending Miami Center
02:53PM 28.0542 -77.6328 178° South 465 535 24,400 -2,460 Descending Miami Center
02:54PM 27.9353 -77.6250 177° South 441 507 22,000 -2,400 Descending Miami Center
02:55PM 27.8225 -77.6194 178° South 421 484 19,700 -2,280 Descending Miami Center
02:56PM 27.7119 -77.6142 178° South 403 464 17,500 -1,860 Descending Miami Center
02:57PM 27.6094 -77.6086 177° South 392 451 16,000 -660 Descending Miami Center
02:58PM 27.4989 -77.5986 175° South 392 451 16,200  Climbing Miami Center
02:59PM 27.3819 -77.6003 181° South 387 445 16,100 -120 Descending Miami Center
03:00PM 27.2756 -77.5925 176° South 387 445 16,000 -1,500 Descending Miami Center
03:01PM 27.1836 -77.5850 176° South 382 440 13,100 -1,500 Descending Miami Center
03:02PM 27.0856 -77.5844 180° South 377 434 13,100 -180 Level Miami Center
03:03PM 26.9894 -77.5558 165° South 362 417 12,800 -1,200 Descending Miami Center
03:04PM 26.9125 -77.5111 153° Southeast 321 369 10,800 -2,100 Descending Miami Center
03:05PM 26.8353 -77.4594 149° Southeast 311 358 8,600 -1,860 Descending Miami Center
03:06PM 26.7644 -77.4194 153° Southeast 293 337 7,100 -1,140 Descending Miami Center
03:07PM 26.6956 -77.3728 149° Southeast 283 326 6,400 -1,080 Descending Miami Center
03:08PM 26.6311 -77.3375 154° Southeast 278 320 5,000 -720 Descending Miami Center
03:09PM 26.5789 -77.2956 144° Southeast 257 296 5,000  Level Miami Center
03:10PM 26.5311 -77.2606 147° Southeast 229 264 5,000  Level Miami Center